sensor_id;sensor_type;location;lat;lon;timestamp;P1;durP1;ratioP1;P2;durP2;ratioP2
10939;SDS011;5522;42.696;23.494;2023-06-22T00:01:15;9.35;;;8.60;;
10939;SDS011;5522;42.696;23.494;2023-06-22T00:03:42;9.70;;;8.65;;
10939;SDS011;5522;42.696;23.494;2023-06-22T00:06:09;11.00;;;9.70;;
10939;SDS011;5522;42.696;23.494;2023-06-22T00:08:36;11.30;;;9.45;;
10939;SDS011;5522;42.696;23.494;2023-06-22T00:11:04;12.05;;;10.63;;
10939;SDS011;5522;42.696;23.494;2023-06-22T00:13:31;11.23;;;10.30;;
10939;SDS011;5522;42.696;23.494;2023-06-22T00:15:58;12.18;;;11.00;;
10939;SDS011;5522;42.696;23.494;2023-06-22T00:18:25;15.10;;;10.82;;
10939;SDS011;5522;42.696;23.494;2023-06-22T00:20:53;14.38;;;10.63;;
10939;SDS011;5522;42.696;23.494;2023-06-22T00:23:23;12.57;;;9.95;;
10939;SDS011;5522;42.696;23.494;2023-06-22T00:25:50;14.77;;;11.13;;
10939;SDS011;5522;42.696;23.494;2023-06-22T00:28:18;10.90;;;9.93;;
10939;SDS011;5522;42.696;23.494;2023-06-22T00:30:45;12.05;;;11.02;;
10939;SDS011;5522;42.696;23.494;2023-06-22T00:33:13;12.82;;;11.50;;
10939;SDS011;5522;42.696;23.494;2023-06-22T00:35:41;12.57;;;11.43;;
10939;SDS011;5522;42.696;23.494;2023-06-22T00:38:08;14.10;;;12.93;;
10939;SDS011;5522;42.696;23.494;2023-06-22T00:40:35;14.70;;;13.00;;
10939;SDS011;5522;42.696;23.494;2023-06-22T00:43:02;12.85;;;11.73;;
10939;SDS011;5522;42.696;23.494;2023-06-22T00:45:31;14.15;;;12.73;;
10939;SDS011;5522;42.696;23.494;2023-06-22T00:47:58;16.02;;;13.07;;
10939;SDS011;5522;42.696;23.494;2023-06-22T00:50:26;14.18;;;12.80;;
10939;SDS011;5522;42.696;23.494;2023-06-22T00:52:59;20.90;;;13.88;;
10939;SDS011;5522;42.696;23.494;2023-06-22T00:55:29;13.90;;;12.57;;
10939;SDS011;5522;42.696;23.494;2023-06-22T00:57:55;15.60;;;14.13;;
10939;SDS011;5522;42.696;23.494;2023-06-22T01:08:40;15.35;;;12.63;;
10939;SDS011;5522;42.696;23.494;2023-06-22T01:11:16;13.63;;;12.43;;
10939;SDS011;5522;42.696;23.494;2023-06-22T01:13:47;14.88;;;13.13;;
10939;SDS011;5522;42.696;23.494;2023-06-22T01:16:23;13.23;;;11.93;;
10939;SDS011;5522;42.696;23.494;2023-06-22T01:18:54;15.70;;;12.18;;
10939;SDS011;5522;42.696;23.494;2023-06-22T01:21:24;13.95;;;12.52;;
10939;SDS011;5522;42.696;23.494;2023-06-22T01:23:59;12.57;;;11.27;;
10939;SDS011;5522;42.696;23.494;2023-06-22T01:26:42;12.32;;;11.00;;
10939;SDS011;5522;42.696;23.494;2023-06-22T01:29:21;10.98;;;9.93;;
10939;SDS011;5522;42.696;23.494;2023-06-22T01:31:50;13.05;;;11.25;;
10939;SDS011;5522;42.696;23.494;2023-06-22T01:34:20;12.32;;;11.05;;
10939;SDS011;5522;42.696;23.494;2023-06-22T01:36:48;13.10;;;10.40;;
10939;SDS011;5522;42.696;23.494;2023-06-22T01:39:16;11.77;;;10.57;;
10939;SDS011;5522;42.696;23.494;2023-06-22T01:41:43;10.88;;;9.85;;
10939;SDS011;5522;42.696;23.494;2023-06-22T01:44:10;13.13;;;9.68;;
10939;SDS011;5522;42.696;23.494;2023-06-22T01:46:40;11.40;;;10.38;;
10939;SDS011;5522;42.696;23.494;2023-06-22T01:49:07;10.50;;;9.60;;
10939;SDS011;5522;42.696;23.494;2023-06-22T01:51:35;11.77;;;10.45;;
10939;SDS011;5522;42.696;23.494;2023-06-22T01:54:01;11.05;;;9.90;;
10939;SDS011;5522;42.696;23.494;2023-06-22T01:56:28;11.32;;;10.23;;
10939;SDS011;5522;42.696;23.494;2023-06-22T01:58:57;17.42;;;10.18;;
10939;SDS011;5522;42.696;23.494;2023-06-22T02:01:31;11.02;;;9.85;;
10939;SDS011;5522;42.696;23.494;2023-06-22T02:04:04;11.02;;;9.60;;
10939;SDS011;5522;42.696;23.494;2023-06-22T02:06:36;11.43;;;10.27;;
10939;SDS011;5522;42.696;23.494;2023-06-22T02:09:06;11.15;;;10.07;;
10939;SDS011;5522;42.696;23.494;2023-06-22T02:11:37;11.57;;;10.30;;
10939;SDS011;5522;42.696;23.494;2023-06-22T02:14:07;14.30;;;10.27;;
10939;SDS011;5522;42.696;23.494;2023-06-22T02:16:35;12.43;;;10.32;;
10939;SDS011;5522;42.696;23.494;2023-06-22T02:19:04;11.48;;;10.25;;
10939;SDS011;5522;42.696;23.494;2023-06-22T02:21:31;11.38;;;10.38;;
10939;SDS011;5522;42.696;23.494;2023-06-22T02:23:58;13.95;;;10.65;;
10939;SDS011;5522;42.696;23.494;2023-06-22T02:26:25;13.43;;;10.55;;
10939;SDS011;5522;42.696;23.494;2023-06-22T02:28:53;11.98;;;10.77;;
10939;SDS011;5522;42.696;23.494;2023-06-22T02:31:20;13.25;;;10.93;;
10939;SDS011;5522;42.696;23.494;2023-06-22T02:33:47;11.75;;;10.70;;
10939;SDS011;5522;42.696;23.494;2023-06-22T02:36:16;13.25;;;11.02;;
10939;SDS011;5522;42.696;23.494;2023-06-22T02:38:50;11.18;;;10.00;;
10939;SDS011;5522;42.696;23.494;2023-06-22T02:41:17;15.18;;;11.68;;
10939;SDS011;5522;42.696;23.494;2023-06-22T02:43:44;12.88;;;11.65;;
10939;SDS011;5522;42.696;23.494;2023-06-22T02:46:11;11.77;;;10.77;;
10939;SDS011;5522;42.696;23.494;2023-06-22T02:48:38;17.20;;;11.57;;
10939;SDS011;5522;42.696;23.494;2023-06-22T02:51:05;12.45;;;10.88;;
10939;SDS011;5522;42.696;23.494;2023-06-22T02:53:34;13.00;;;11.43;;
10939;SDS011;5522;42.696;23.494;2023-06-22T02:56:01;14.40;;;11.52;;
10939;SDS011;5522;42.696;23.494;2023-06-22T02:58:30;14.52;;;10.82;;
10939;SDS011;5522;42.696;23.494;2023-06-22T03:01:03;12.07;;;10.93;;
10939;SDS011;5522;42.696;23.494;2023-06-22T03:03:30;12.88;;;10.35;;
10939;SDS011;5522;42.696;23.494;2023-06-22T03:05:57;15.55;;;11.73;;
10939;SDS011;5522;42.696;23.494;2023-06-22T03:08:26;13.23;;;12.13;;
10939;SDS011;5522;42.696;23.494;2023-06-22T03:10:55;14.73;;;11.23;;
10939;SDS011;5522;42.696;23.494;2023-06-22T03:13:22;11.57;;;10.48;;
10939;SDS011;5522;42.696;23.494;2023-06-22T03:15:49;11.98;;;10.77;;
10939;SDS011;5522;42.696;23.494;2023-06-22T03:18:16;9.18;;;8.57;;
10939;SDS011;5522;42.696;23.494;2023-06-22T03:20:43;9.98;;;9.00;;
10939;SDS011;5522;42.696;23.494;2023-06-22T03:23:09;9.70;;;8.77;;
10939;SDS011;5522;42.696;23.494;2023-06-22T03:25:36;12.80;;;8.52;;
10939;SDS011;5522;42.696;23.494;2023-06-22T03:28:04;7.63;;;6.95;;
10939;SDS011;5522;42.696;23.494;2023-06-22T03:30:31;8.52;;;7.70;;
10939;SDS011;5522;42.696;23.494;2023-06-22T03:32:58;8.07;;;6.65;;
10939;SDS011;5522;42.696;23.494;2023-06-22T03:35:25;8.15;;;6.57;;
10939;SDS011;5522;42.696;23.494;2023-06-22T03:37:52;6.40;;;5.53;;
10939;SDS011;5522;42.696;23.494;2023-06-22T03:40:19;11.43;;;5.03;;
10939;SDS011;5522;42.696;23.494;2023-06-22T03:42:46;5.88;;;4.72;;
10939;SDS011;5522;42.696;23.494;2023-06-22T03:45:14;7.13;;;4.38;;
10939;SDS011;5522;42.696;23.494;2023-06-22T03:47:41;5.80;;;4.10;;
10939;SDS011;5522;42.696;23.494;2023-06-22T03:50:08;6.85;;;3.97;;
10939;SDS011;5522;42.696;23.494;2023-06-22T03:52:35;9.10;;;4.30;;
10939;SDS011;5522;42.696;23.494;2023-06-22T03:55:02;6.65;;;4.10;;
10939;SDS011;5522;42.696;23.494;2023-06-22T03:57:30;4.15;;;3.85;;
10939;SDS011;5522;42.696;23.494;2023-06-22T03:59:57;3.78;;;3.53;;
10939;SDS011;5522;42.696;23.494;2023-06-22T04:02:25;6.28;;;3.85;;
10939;SDS011;5522;42.696;23.494;2023-06-22T04:04:52;8.13;;;3.88;;
10939;SDS011;5522;42.696;23.494;2023-06-22T04:07:19;6.10;;;3.83;;
10939;SDS011;5522;42.696;23.494;2023-06-22T04:09:45;6.20;;;4.03;;
10939;SDS011;5522;42.696;23.494;2023-06-22T04:12:13;4.07;;;3.88;;
10939;SDS011;5522;42.696;23.494;2023-06-22T04:14:39;4.57;;;4.13;;
10939;SDS011;5522;42.696;23.494;2023-06-22T04:17:06;9.23;;;4.38;;
10939;SDS011;5522;42.696;23.494;2023-06-22T04:19:34;4.78;;;4.57;;
10939;SDS011;5522;42.696;23.494;2023-06-22T04:22:01;5.32;;;4.82;;
10939;SDS011;5522;42.696;23.494;2023-06-22T04:24:28;5.68;;;4.53;;
10939;SDS011;5522;42.696;23.494;2023-06-22T04:26:55;4.68;;;4.40;;
10939;SDS011;5522;42.696;23.494;2023-06-22T04:29:22;4.32;;;3.90;;
10939;SDS011;5522;42.696;23.494;2023-06-22T04:31:53;5.13;;;4.68;;
10939;SDS011;5522;42.696;23.494;2023-06-22T04:34:22;4.90;;;4.43;;
10939;SDS011;5522;42.696;23.494;2023-06-22T04:36:52;5.80;;;4.50;;
10939;SDS011;5522;42.696;23.494;2023-06-22T04:39:19;5.53;;;4.80;;
10939;SDS011;5522;42.696;23.494;2023-06-22T04:41:46;4.70;;;4.45;;
10939;SDS011;5522;42.696;23.494;2023-06-22T04:44:14;6.70;;;4.80;;
10939;SDS011;5522;42.696;23.494;2023-06-22T04:46:49;4.63;;;4.32;;
10939;SDS011;5522;42.696;23.494;2023-06-22T04:49:19;5.68;;;3.42;;
10939;SDS011;5522;42.696;23.494;2023-06-22T04:51:47;4.75;;;3.83;;
10939;SDS011;5522;42.696;23.494;2023-06-22T04:54:15;5.50;;;4.30;;
10939;SDS011;5522;42.696;23.494;2023-06-22T04:56:42;4.20;;;4.00;;
10939;SDS011;5522;42.696;23.494;2023-06-22T04:59:11;4.18;;;3.88;;
10939;SDS011;5522;42.696;23.494;2023-06-22T05:01:39;5.65;;;4.22;;
10939;SDS011;5522;42.696;23.494;2023-06-22T05:04:06;5.88;;;4.57;;
10939;SDS011;5522;42.696;23.494;2023-06-22T05:06:33;4.45;;;4.07;;
10939;SDS011;5522;42.696;23.494;2023-06-22T05:09:00;7.55;;;4.15;;
10939;SDS011;5522;42.696;23.494;2023-06-22T05:11:29;7.57;;;5.35;;
10939;SDS011;5522;42.696;23.494;2023-06-22T05:13:56;8.20;;;4.80;;
10939;SDS011;5522;42.696;23.494;2023-06-22T05:16:23;7.90;;;5.13;;
10939;SDS011;5522;42.696;23.494;2023-06-22T05:18:51;6.80;;;6.03;;
10939;SDS011;5522;42.696;23.494;2023-06-22T05:21:21;5.68;;;4.85;;
10939;SDS011;5522;42.696;23.494;2023-06-22T05:23:49;6.03;;;5.53;;
10939;SDS011;5522;42.696;23.494;2023-06-22T05:26:16;8.88;;;5.18;;
10939;SDS011;5522;42.696;23.494;2023-06-22T05:28:44;8.35;;;5.15;;
10939;SDS011;5522;42.696;23.494;2023-06-22T05:31:12;4.95;;;4.60;;
10939;SDS011;5522;42.696;23.494;2023-06-22T05:33:40;4.75;;;4.07;;
10939;SDS011;5522;42.696;23.494;2023-06-22T05:36:07;10.13;;;5.43;;
10939;SDS011;5522;42.696;23.494;2023-06-22T05:38:35;6.10;;;5.43;;
10939;SDS011;5522;42.696;23.494;2023-06-22T05:41:02;4.65;;;4.35;;
10939;SDS011;5522;42.696;23.494;2023-06-22T05:43:29;12.48;;;4.93;;
10939;SDS011;5522;42.696;23.494;2023-06-22T05:45:57;6.32;;;5.18;;
10939;SDS011;5522;42.696;23.494;2023-06-22T05:48:24;4.88;;;4.50;;
10939;SDS011;5522;42.696;23.494;2023-06-22T05:50:51;5.25;;;4.38;;
10939;SDS011;5522;42.696;23.494;2023-06-22T05:53:18;5.50;;;4.97;;
10939;SDS011;5522;42.696;23.494;2023-06-22T05:55:45;6.20;;;5.18;;
10939;SDS011;5522;42.696;23.494;2023-06-22T05:58:12;6.05;;;5.32;;
10939;SDS011;5522;42.696;23.494;2023-06-22T06:00:39;5.13;;;4.43;;
10939;SDS011;5522;42.696;23.494;2023-06-22T06:03:09;7.93;;;5.72;;
10939;SDS011;5522;42.696;23.494;2023-06-22T06:05:36;10.95;;;5.70;;
10939;SDS011;5522;42.696;23.494;2023-06-22T06:08:05;6.00;;;4.93;;
10939;SDS011;5522;42.696;23.494;2023-06-22T06:10:33;7.18;;;5.90;;
10939;SDS011;5522;42.696;23.494;2023-06-22T06:13:00;7.57;;;5.43;;
10939;SDS011;5522;42.696;23.494;2023-06-22T06:15:29;7.10;;;5.50;;
10939;SDS011;5522;42.696;23.494;2023-06-22T06:17:56;9.75;;;5.70;;
10939;SDS011;5522;42.696;23.494;2023-06-22T06:20:25;6.57;;;5.65;;
10939;SDS011;5522;42.696;23.494;2023-06-22T06:22:54;10.05;;;5.57;;
10939;SDS011;5522;42.696;23.494;2023-06-22T06:25:21;5.38;;;4.28;;
10939;SDS011;5522;42.696;23.494;2023-06-22T06:27:48;7.35;;;6.50;;
10939;SDS011;5522;42.696;23.494;2023-06-22T06:30:16;8.50;;;6.15;;
10939;SDS011;5522;42.696;23.494;2023-06-22T06:32:44;9.43;;;6.28;;
10939;SDS011;5522;42.696;23.494;2023-06-22T06:35:13;8.32;;;6.10;;
10939;SDS011;5522;42.696;23.494;2023-06-22T06:37:44;12.45;;;6.68;;
10939;SDS011;5522;42.696;23.494;2023-06-22T06:40:15;15.90;;;6.45;;
10939;SDS011;5522;42.696;23.494;2023-06-22T06:42:43;11.18;;;6.60;;
10939;SDS011;5522;42.696;23.494;2023-06-22T06:45:12;10.30;;;5.47;;
10939;SDS011;5522;42.696;23.494;2023-06-22T06:47:39;8.85;;;5.70;;
10939;SDS011;5522;42.696;23.494;2023-06-22T06:50:06;7.07;;;5.70;;
10939;SDS011;5522;42.696;23.494;2023-06-22T06:52:34;9.55;;;5.60;;
10939;SDS011;5522;42.696;23.494;2023-06-22T06:55:02;8.98;;;4.88;;
10939;SDS011;5522;42.696;23.494;2023-06-22T06:57:33;5.80;;;5.47;;
10939;SDS011;5522;42.696;23.494;2023-06-22T07:00:00;5.88;;;5.45;;
10939;SDS011;5522;42.696;23.494;2023-06-22T07:02:32;5.88;;;5.38;;
10939;SDS011;5522;42.696;23.494;2023-06-22T07:04:59;14.70;;;5.55;;
10939;SDS011;5522;42.696;23.494;2023-06-22T07:07:25;7.55;;;5.13;;
10939;SDS011;5522;42.696;23.494;2023-06-22T07:09:52;5.72;;;5.22;;
10939;SDS011;5522;42.696;23.494;2023-06-22T07:12:20;10.55;;;5.57;;
10939;SDS011;5522;42.696;23.494;2023-06-22T07:14:47;6.15;;;5.45;;
10939;SDS011;5522;42.696;23.494;2023-06-22T07:17:15;5.95;;;5.28;;
10939;SDS011;5522;42.696;23.494;2023-06-22T07:19:42;4.60;;;4.30;;
10939;SDS011;5522;42.696;23.494;2023-06-22T07:22:08;5.43;;;4.90;;
10939;SDS011;5522;42.696;23.494;2023-06-22T07:24:35;5.80;;;4.28;;
10939;SDS011;5522;42.696;23.494;2023-06-22T07:27:02;4.97;;;4.47;;
10939;SDS011;5522;42.696;23.494;2023-06-22T07:29:33;7.53;;;3.67;;
10939;SDS011;5522;42.696;23.494;2023-06-22T07:32:00;6.07;;;3.95;;
10939;SDS011;5522;42.696;23.494;2023-06-22T07:34:29;4.20;;;3.90;;
10939;SDS011;5522;42.696;23.494;2023-06-22T07:36:56;5.25;;;4.25;;
10939;SDS011;5522;42.696;23.494;2023-06-22T07:39:23;6.10;;;3.53;;
10939;SDS011;5522;42.696;23.494;2023-06-22T07:41:51;3.17;;;2.90;;
10939;SDS011;5522;42.696;23.494;2023-06-22T07:44:18;3.30;;;3.20;;
10939;SDS011;5522;42.696;23.494;2023-06-22T07:46:47;3.42;;;3.10;;
10939;SDS011;5522;42.696;23.494;2023-06-22T07:49:13;3.17;;;2.80;;
10939;SDS011;5522;42.696;23.494;2023-06-22T07:51:40;3.33;;;3.13;;
10939;SDS011;5522;42.696;23.494;2023-06-22T07:54:08;3.90;;;3.58;;
10939;SDS011;5522;42.696;23.494;2023-06-22T07:56:36;5.55;;;2.70;;
10939;SDS011;5522;42.696;23.494;2023-06-22T07:59:03;3.05;;;2.58;;
10939;SDS011;5522;42.696;23.494;2023-06-22T08:01:29;8.80;;;2.78;;
10939;SDS011;5522;42.696;23.494;2023-06-22T08:03:58;5.70;;;2.90;;
10939;SDS011;5522;42.696;23.494;2023-06-22T08:06:24;5.43;;;3.88;;
10939;SDS011;5522;42.696;23.494;2023-06-22T08:08:51;5.78;;;2.95;;
10939;SDS011;5522;42.696;23.494;2023-06-22T08:11:19;4.82;;;2.88;;
10939;SDS011;5522;42.696;23.494;2023-06-22T08:13:48;5.60;;;2.90;;
10939;SDS011;5522;42.696;23.494;2023-06-22T08:16:15;6.15;;;3.10;;
10939;SDS011;5522;42.696;23.494;2023-06-22T08:18:41;4.78;;;3.03;;
10939;SDS011;5522;42.696;23.494;2023-06-22T08:21:10;7.93;;;3.17;;
10939;SDS011;5522;42.696;23.494;2023-06-22T08:23:37;8.73;;;2.97;;
10939;SDS011;5522;42.696;23.494;2023-06-22T08:26:04;4.80;;;2.92;;
10939;SDS011;5522;42.696;23.494;2023-06-22T08:28:30;7.15;;;2.60;;
10939;SDS011;5522;42.696;23.494;2023-06-22T08:30:57;8.30;;;2.90;;
10939;SDS011;5522;42.696;23.494;2023-06-22T08:33:24;5.18;;;3.05;;
10939;SDS011;5522;42.696;23.494;2023-06-22T08:35:53;5.28;;;2.92;;
10939;SDS011;5522;42.696;23.494;2023-06-22T08:38:21;5.32;;;2.53;;
10939;SDS011;5522;42.696;23.494;2023-06-22T08:40:48;3.83;;;3.03;;
10939;SDS011;5522;42.696;23.494;2023-06-22T08:43:15;2.92;;;2.00;;
10939;SDS011;5522;42.696;23.494;2023-06-22T08:45:42;7.53;;;2.17;;
10939;SDS011;5522;42.696;23.494;2023-06-22T08:48:09;1.90;;;1.80;;
10939;SDS011;5522;42.696;23.494;2023-06-22T08:50:35;5.63;;;1.77;;
10939;SDS011;5522;42.696;23.494;2023-06-22T08:53:02;7.55;;;2.47;;
10939;SDS011;5522;42.696;23.494;2023-06-22T08:55:30;4.07;;;2.08;;
10939;SDS011;5522;42.696;23.494;2023-06-22T08:57:57;5.88;;;2.70;;
10939;SDS011;5522;42.696;23.494;2023-06-22T09:00:24;5.57;;;2.80;;
10939;SDS011;5522;42.696;23.494;2023-06-22T09:02:52;7.50;;;2.58;;
10939;SDS011;5522;42.696;23.494;2023-06-22T09:05:18;3.75;;;2.28;;
10939;SDS011;5522;42.696;23.494;2023-06-22T09:07:47;2.60;;;2.40;;
10939;SDS011;5522;42.696;23.494;2023-06-22T09:10:14;4.28;;;2.53;;
10939;SDS011;5522;42.696;23.494;2023-06-22T09:12:42;3.25;;;2.28;;
10939;SDS011;5522;42.696;23.494;2023-06-22T09:15:09;4.15;;;2.20;;
10939;SDS011;5522;42.696;23.494;2023-06-22T09:17:36;4.72;;;1.85;;
10939;SDS011;5522;42.696;23.494;2023-06-22T09:20:03;3.22;;;2.47;;
10939;SDS011;5522;42.696;23.494;2023-06-22T09:22:33;6.63;;;3.13;;
10939;SDS011;5522;42.696;23.494;2023-06-22T09:25:00;5.03;;;2.50;;
10939;SDS011;5522;42.696;23.494;2023-06-22T09:27:28;5.35;;;2.45;;
10939;SDS011;5522;42.696;23.494;2023-06-22T09:29:56;2.08;;;1.85;;
10939;SDS011;5522;42.696;23.494;2023-06-22T09:32:23;3.50;;;1.10;;
10939;SDS011;5522;42.696;23.494;2023-06-22T09:34:50;3.83;;;1.70;;
10939;SDS011;5522;42.696;23.494;2023-06-22T09:37:18;2.13;;;1.70;;
10939;SDS011;5522;42.696;23.494;2023-06-22T09:39:44;4.80;;;1.83;;
10939;SDS011;5522;42.696;23.494;2023-06-22T09:42:11;1.88;;;1.67;;
10939;SDS011;5522;42.696;23.494;2023-06-22T09:44:38;3.00;;;2.55;;
10939;SDS011;5522;42.696;23.494;2023-06-22T09:47:07;2.60;;;2.40;;
10939;SDS011;5522;42.696;23.494;2023-06-22T09:49:34;6.63;;;2.63;;
10939;SDS011;5522;42.696;23.494;2023-06-22T09:52:01;8.65;;;2.78;;
10939;SDS011;5522;42.696;23.494;2023-06-22T09:54:27;3.88;;;2.38;;
10939;SDS011;5522;42.696;23.494;2023-06-22T09:56:54;2.45;;;2.20;;
10939;SDS011;5522;42.696;23.494;2023-06-22T09:59:21;3.05;;;2.80;;
10939;SDS011;5522;42.696;23.494;2023-06-22T10:01:48;4.05;;;2.97;;
10939;SDS011;5522;42.696;23.494;2023-06-22T10:04:16;2.92;;;2.42;;
10939;SDS011;5522;42.696;23.494;2023-06-22T10:06:43;8.25;;;3.40;;
10939;SDS011;5522;42.696;23.494;2023-06-22T10:09:10;2.72;;;2.50;;
10939;SDS011;5522;42.696;23.494;2023-06-22T10:11:36;4.90;;;3.13;;
10939;SDS011;5522;42.696;23.494;2023-06-22T10:14:03;4.90;;;3.38;;
10939;SDS011;5522;42.696;23.494;2023-06-22T10:16:30;6.25;;;3.42;;
10939;SDS011;5522;42.696;23.494;2023-06-22T10:18:57;4.28;;;2.80;;
10939;SDS011;5522;42.696;23.494;2023-06-22T10:21:26;4.15;;;3.30;;
10939;SDS011;5522;42.696;23.494;2023-06-22T10:23:53;3.30;;;3.05;;
10939;SDS011;5522;42.696;23.494;2023-06-22T10:26:20;3.20;;;3.03;;
10939;SDS011;5522;42.696;23.494;2023-06-22T10:28:47;3.30;;;3.20;;
10939;SDS011;5522;42.696;23.494;2023-06-22T10:31:14;9.25;;;3.10;;
10939;SDS011;5522;42.696;23.494;2023-06-22T10:33:41;5.13;;;3.53;;
10939;SDS011;5522;42.696;23.494;2023-06-22T10:36:09;2.90;;;2.80;;
10939;SDS011;5522;42.696;23.494;2023-06-22T10:38:37;3.53;;;3.25;;
10939;SDS011;5522;42.696;23.494;2023-06-22T10:41:04;3.30;;;3.10;;
10939;SDS011;5522;42.696;23.494;2023-06-22T10:43:31;3.00;;;2.78;;
10939;SDS011;5522;42.696;23.494;2023-06-22T10:45:58;3.55;;;2.55;;
10939;SDS011;5522;42.696;23.494;2023-06-22T10:48:25;3.17;;;3.03;;
10939;SDS011;5522;42.696;23.494;2023-06-22T10:50:52;2.90;;;2.78;;
10939;SDS011;5522;42.696;23.494;2023-06-22T10:53:19;3.15;;;3.05;;
10939;SDS011;5522;42.696;23.494;2023-06-22T10:55:48;2.42;;;2.33;;
10939;SDS011;5522;42.696;23.494;2023-06-22T10:58:16;3.13;;;2.92;;
10939;SDS011;5522;42.696;23.494;2023-06-22T11:00:44;2.80;;;2.70;;
10939;SDS011;5522;42.696;23.494;2023-06-22T11:03:10;3.05;;;2.85;;
10939;SDS011;5522;42.696;23.494;2023-06-22T11:05:39;2.92;;;2.78;;
10939;SDS011;5522;42.696;23.494;2023-06-22T11:08:06;3.50;;;3.35;;
10939;SDS011;5522;42.696;23.494;2023-06-22T11:10:33;3.28;;;3.17;;
10939;SDS011;5522;42.696;23.494;2023-06-22T11:13:01;4.15;;;3.20;;
10939;SDS011;5522;42.696;23.494;2023-06-22T11:15:29;3.03;;;2.88;;
10939;SDS011;5522;42.696;23.494;2023-06-22T11:17:56;4.07;;;3.00;;
10939;SDS011;5522;42.696;23.494;2023-06-22T11:20:23;2.97;;;2.53;;
10939;SDS011;5522;42.696;23.494;2023-06-22T11:22:49;7.68;;;2.90;;
10939;SDS011;5522;42.696;23.494;2023-06-22T11:25:16;2.72;;;2.63;;
10939;SDS011;5522;42.696;23.494;2023-06-22T11:27:43;3.03;;;2.92;;
10939;SDS011;5522;42.696;23.494;2023-06-22T11:30:12;2.85;;;2.65;;
10939;SDS011;5522;42.696;23.494;2023-06-22T11:32:39;2.90;;;2.80;;
10939;SDS011;5522;42.696;23.494;2023-06-22T11:35:06;3.90;;;2.78;;
10939;SDS011;5522;42.696;23.494;2023-06-22T11:37:33;3.03;;;3.03;;
10939;SDS011;5522;42.696;23.494;2023-06-22T11:40:00;2.85;;;2.75;;
10939;SDS011;5522;42.696;23.494;2023-06-22T11:42:28;3.03;;;2.83;;
10939;SDS011;5522;42.696;23.494;2023-06-22T11:44:55;3.17;;;2.42;;
10939;SDS011;5522;42.696;23.494;2023-06-22T11:47:23;4.43;;;2.63;;
10939;SDS011;5522;42.696;23.494;2023-06-22T11:49:50;2.55;;;2.55;;
10939;SDS011;5522;42.696;23.494;2023-06-22T11:52:17;2.67;;;2.58;;
10939;SDS011;5522;42.696;23.494;2023-06-22T11:54:44;4.68;;;2.92;;
10939;SDS011;5522;42.696;23.494;2023-06-22T11:57:12;5.78;;;4.03;;
10939;SDS011;5522;42.696;23.494;2023-06-22T11:59:38;5.70;;;4.97;;
10939;SDS011;5522;42.696;23.494;2023-06-22T12:02:05;13.00;;;6.65;;
10939;SDS011;5522;42.696;23.494;2023-06-22T12:04:34;25.15;;;6.15;;
10939;SDS011;5522;42.696;23.494;2023-06-22T12:07:01;21.67;;;5.25;;
10939;SDS011;5522;42.696;23.494;2023-06-22T12:09:28;9.15;;;5.13;;
10939;SDS011;5522;42.696;23.494;2023-06-22T12:11:54;6.30;;;5.35;;
10939;SDS011;5522;42.696;23.494;2023-06-22T12:14:21;6.60;;;5.50;;
10939;SDS011;5522;42.696;23.494;2023-06-22T12:16:48;4.80;;;4.35;;
10939;SDS011;5522;42.696;23.494;2023-06-22T12:19:15;5.30;;;4.80;;
10939;SDS011;5522;42.696;23.494;2023-06-22T12:21:43;6.57;;;4.55;;
10939;SDS011;5522;42.696;23.494;2023-06-22T12:24:11;5.65;;;5.15;;
10939;SDS011;5522;42.696;23.494;2023-06-22T12:26:37;5.60;;;5.20;;
10939;SDS011;5522;42.696;23.494;2023-06-22T12:29:04;5.22;;;4.82;;
10939;SDS011;5522;42.696;23.494;2023-06-22T12:31:31;4.95;;;4.65;;
10939;SDS011;5522;42.696;23.494;2023-06-22T12:33:58;4.85;;;4.43;;
10939;SDS011;5522;42.696;23.494;2023-06-22T12:36:25;7.13;;;4.53;;
10939;SDS011;5522;42.696;23.494;2023-06-22T12:38:53;4.15;;;3.85;;
10939;SDS011;5522;42.696;23.494;2023-06-22T12:41:20;4.93;;;4.60;;
10939;SDS011;5522;42.696;23.494;2023-06-22T12:43:47;4.32;;;4.03;;
10939;SDS011;5522;42.696;23.494;2023-06-22T12:46:14;3.38;;;3.28;;
10939;SDS011;5522;42.696;23.494;2023-06-22T12:48:41;4.00;;;3.70;;
10939;SDS011;5522;42.696;23.494;2023-06-22T12:51:08;3.30;;;3.00;;
10939;SDS011;5522;42.696;23.494;2023-06-22T12:53:35;3.58;;;3.47;;
10939;SDS011;5522;42.696;23.494;2023-06-22T12:56:03;3.58;;;3.28;;
10939;SDS011;5522;42.696;23.494;2023-06-22T12:58:30;4.00;;;3.72;;
10939;SDS011;5522;42.696;23.494;2023-06-22T13:00:57;3.15;;;2.95;;
10939;SDS011;5522;42.696;23.494;2023-06-22T13:03:24;3.53;;;3.28;;
10939;SDS011;5522;42.696;23.494;2023-06-22T13:05:53;4.10;;;3.70;;
10939;SDS011;5522;42.696;23.494;2023-06-22T13:08:20;4.03;;;3.75;;
10939;SDS011;5522;42.696;23.494;2023-06-22T13:10:47;3.60;;;3.50;;
10939;SDS011;5522;42.696;23.494;2023-06-22T13:13:15;6.68;;;3.80;;
10939;SDS011;5522;42.696;23.494;2023-06-22T13:15:42;4.20;;;4.00;;
10939;SDS011;5522;42.696;23.494;2023-06-22T13:18:09;4.60;;;4.30;;
10939;SDS011;5522;42.696;23.494;2023-06-22T13:20:36;7.00;;;4.00;;
10939;SDS011;5522;42.696;23.494;2023-06-22T13:23:03;5.00;;;4.50;;
10939;SDS011;5522;42.696;23.494;2023-06-22T13:25:30;5.38;;;4.93;;
10939;SDS011;5522;42.696;23.494;2023-06-22T13:27:56;9.63;;;5.78;;
10939;SDS011;5522;42.696;23.494;2023-06-22T13:30:25;5.47;;;5.18;;
10939;SDS011;5522;42.696;23.494;2023-06-22T13:32:51;6.30;;;5.53;;
10939;SDS011;5522;42.696;23.494;2023-06-22T13:35:18;5.85;;;5.40;;
10939;SDS011;5522;42.696;23.494;2023-06-22T13:37:45;9.00;;;6.20;;
10939;SDS011;5522;42.696;23.494;2023-06-22T13:40:12;9.23;;;7.35;;
10939;SDS011;5522;42.696;23.494;2023-06-22T13:42:39;8.65;;;7.35;;
10939;SDS011;5522;42.696;23.494;2023-06-22T13:45:07;8.00;;;7.00;;
10939;SDS011;5522;42.696;23.494;2023-06-22T13:47:35;6.53;;;5.50;;
10939;SDS011;5522;42.696;23.494;2023-06-22T13:50:03;10.65;;;6.50;;
10939;SDS011;5522;42.696;23.494;2023-06-22T13:52:30;7.07;;;6.22;;
10939;SDS011;5522;42.696;23.494;2023-06-22T13:54:57;6.07;;;5.45;;
10939;SDS011;5522;42.696;23.494;2023-06-22T13:57:24;8.52;;;5.85;;
10939;SDS011;5522;42.696;23.494;2023-06-22T13:59:51;7.78;;;5.82;;
10939;SDS011;5522;42.696;23.494;2023-06-22T14:02:17;7.15;;;6.50;;
10939;SDS011;5522;42.696;23.494;2023-06-22T14:04:45;9.32;;;6.60;;
10939;SDS011;5522;42.696;23.494;2023-06-22T14:07:12;6.85;;;6.25;;
10939;SDS011;5522;42.696;23.494;2023-06-22T14:09:39;8.50;;;6.20;;
10939;SDS011;5522;42.696;23.494;2023-06-22T14:12:06;6.60;;;6.20;;
10939;SDS011;5522;42.696;23.494;2023-06-22T14:14:34;6.25;;;5.65;;
10939;SDS011;5522;42.696;23.494;2023-06-22T14:17:01;7.40;;;6.75;;
10939;SDS011;5522;42.696;23.494;2023-06-22T14:19:27;6.70;;;5.82;;
10939;SDS011;5522;42.696;23.494;2023-06-22T14:21:56;7.45;;;5.15;;
10939;SDS011;5522;42.696;23.494;2023-06-22T14:24:23;7.00;;;5.47;;
10939;SDS011;5522;42.696;23.494;2023-06-22T14:26:50;6.60;;;5.88;;
10939;SDS011;5522;42.696;23.494;2023-06-22T14:29:17;6.53;;;6.03;;
10939;SDS011;5522;42.696;23.494;2023-06-22T14:31:44;6.18;;;5.85;;
10939;SDS011;5522;42.696;23.494;2023-06-22T14:34:12;6.70;;;6.10;;
10939;SDS011;5522;42.696;23.494;2023-06-22T14:36:39;6.80;;;6.20;;
10939;SDS011;5522;42.696;23.494;2023-06-22T14:39:07;6.25;;;5.78;;
10939;SDS011;5522;42.696;23.494;2023-06-22T14:41:34;6.63;;;6.05;;
10939;SDS011;5522;42.696;23.494;2023-06-22T14:44:01;9.52;;;6.95;;
10939;SDS011;5522;42.696;23.494;2023-06-22T14:46:28;9.55;;;6.43;;
10939;SDS011;5522;42.696;23.494;2023-06-22T14:48:55;8.80;;;6.93;;
10939;SDS011;5522;42.696;23.494;2023-06-22T14:51:21;8.45;;;6.10;;
10939;SDS011;5522;42.696;23.494;2023-06-22T14:53:48;8.38;;;7.35;;